Time;durP1;ratioP1;P1;durP2;ratioP2;P2;SDS_P1;SDS_P2;PMS_P1;PMS_P2;Temp;Humidity;BMP_temperature;BMP_pressure;BME280_temperature;BME280_humidity;BME280_pressure;Samples;Min_cycle;Max_cycle;Signal;HPM_P1;HPM_P2
2022/10/08 00:00:14;;;;;;;;;;;24.70;99.90;;;;;;5062433;28;19979;-86
2022/10/08 00:02:41;;;;;;;;;;;24.60;99.90;;;;;;5056345;28;19916;-81
2022/10/08 00:05:08;;;;;;;;;;;24.40;99.90;;;;;;5057855;28;19935;-80
2022/10/08 00:07:35;;;;;;;;;;;24.20;99.90;;;;;;5057480;28;20043;-79
2022/10/08 00:10:05;;;;;;;;;;;24.00;99.90;;;;;;5052586;28;19912;-79
2022/10/08 00:12:31;;;;;;;;;;;24.00;99.90;;;;;;5060938;28;19916;-83
2022/10/08 00:14:58;;;;;;;;;;;24.00;99.90;;;;;;5064482;28;19936;-82
2022/10/08 00:17:24;;;;;;;;;;;24.00;99.90;;;;;;5065752;28;19978;-86
2022/10/08 00:19:53;;;;;;;;;;;23.90;99.90;;;;;;5057404;28;19932;-81
2022/10/08 00:22:19;;;;;;;;;;;23.90;99.90;;;;;;5055729;28;19908;-88
2022/10/08 00:24:48;;;;;;;;;;;24.00;99.90;;;;;;5061639;28;20359;-88
2022/10/08 00:27:15;;;;;;;;;;;24.20;99.90;;;;;;5056067;28;19932;-85
2022/10/08 00:29:43;;;;;;;;;;;24.30;99.90;;;;;;5058636;28;20313;-83
2022/10/08 00:32:11;;;;;;;;;;;24.50;99.90;;;;;;5066311;28;20272;-88
2022/10/08 00:34:38;;;;;;;;;;;24.70;99.90;;;;;;5055839;28;20365;-81
2022/10/08 00:37:05;;;;;;;;;;;24.70;99.90;;;;;;5055376;28;19913;-85
2022/10/08 00:39:32;;;;;;;;;;;24.70;99.90;;;;;;5068495;28;19909;-88
2022/10/08 00:41:59;;;;;;;;;;;24.70;99.90;;;;;;5063006;28;20049;-83
2022/10/08 00:44:44;;;;;;;;;;;24.60;99.90;;;;;;5054511;28;19908;-84
2022/10/08 00:47:22;;;;;;;;;;;24.50;99.90;;;;;;5056258;28;19923;-80
2022/10/08 00:49:50;;;;;;;;;;;24.50;99.90;;;;;;5055476;28;19908;-84
2022/10/08 00:52:17;;;;;;;;;;;24.40;99.90;;;;;;5061810;28;19918;-82
2022/10/08 00:54:45;;;;;;;;;;;24.50;99.90;;;;;;5056926;28;20271;-83
2022/10/08 00:57:11;;;;;;;;;;;24.60;99.90;;;;;;5060422;28;20020;-84
2022/10/08 00:59:38;;;;;;;;;;;24.80;99.90;;;;;;5056343;28;20076;-86
2022/10/08 01:02:07;;;;;;;;;;;24.80;99.90;;;;;;5058296;28;20279;-82
2022/10/08 01:04:35;;;;;;;;;;;24.90;99.90;;;;;;5057716;28;19996;-86
2022/10/08 01:07:13;;;;;;;;;;;24.80;99.90;;;;;;5060799;28;20374;-86
2022/10/08 01:10:06;;;;;;;;;;;24.70;99.90;;;;;;5068700;28;19908;-83
2022/10/08 01:12:45;;;;;;;;;;;24.50;99.90;;;;;;5065571;28;20503;-85
2022/10/08 01:15:22;;;;;;;;;;;24.30;99.90;;;;;;5045917;28;19920;-83
2022/10/08 01:18:15;;;;;;;;;;;24.30;99.90;;;;;;5070196;28;19940;-82
2022/10/08 01:20:51;;;;;;;;;;;24.10;99.90;;;;;;5040134;28;20003;-88
2022/10/08 01:23:32;;;;;;;;;;;23.90;99.90;;;;;;5063430;28;19959;-85
2022/10/08 01:26:17;;;;;;;;;;;23.80;99.90;;;;;;5058696;28;19917;-86
2022/10/08 01:29:05;;;;;;;;;;;23.80;99.90;;;;;;5060033;28;20473;-88
2022/10/08 01:31:39;;;;;;;;;;;23.80;99.90;;;;;;5066381;28;19916;-83
2022/10/08 01:34:21;;;;;;;;;;;23.70;99.90;;;;;;5055311;28;19916;-86
2022/10/08 01:36:49;;;;;;;;;;;23.70;99.90;;;;;;5069201;28;19946;-89
2022/10/08 01:39:17;;;;;;;;;;;23.80;99.90;;;;;;5060412;28;20313;-84
2022/10/08 01:41:50;;;;;;;;;;;23.80;99.90;;;;;;5056860;28;20363;-87
2022/10/08 01:44:22;;;;;;;;;;;23.80;99.90;;;;;;5056881;28;19908;-87
2022/10/08 01:46:50;;;;;;;;;;;23.70;99.90;;;;;;5063374;28;19924;-90
2022/10/08 01:49:20;;;;;;;;;;;23.60;99.90;;;;;;5070998;28;19958;-90
2022/10/08 01:51:52;;;;;;;;;;;23.50;99.90;;;;;;5067111;28;19908;-84
2022/10/08 01:54:19;;;;;;;;;;;23.40;99.90;;;;;;5064073;28;19909;-82
2022/10/08 01:56:47;;;;;;;;;;;23.30;99.90;;;;;;5064317;28;19991;-83
2022/10/08 01:59:16;;;;;;;;;;;23.10;99.90;;;;;;5072242;28;19909;-87
2022/10/08 02:01:49;;;;;;;;;;;23.10;99.90;;;;;;5058390;28;19908;-80
2022/10/08 02:04:32;;;;;;;;;;;23.10;99.90;;;;;;5061363;28;20283;-80
2022/10/08 02:07:06;;;;;;;;;;;23.00;99.90;;;;;;5057411;28;20033;-87
2022/10/08 02:09:34;;;;;;;;;;;22.90;99.90;;;;;;5057275;28;19923;-83
2022/10/08 02:12:01;;;;;;;;;;;22.80;99.90;;;;;;5039949;28;19912;-84
2022/10/08 02:14:29;;;;;;;;;;;22.60;99.90;;;;;;5050907;28;19955;-85
2022/10/08 02:17:01;;;;;;;;;;;22.60;99.90;;;;;;5053229;28;20008;-87
2022/10/08 02:19:38;;;;;;;;;;;22.50;99.90;;;;;;5053350;28;19959;-87
2022/10/08 02:22:06;;;;;;;;;;;22.50;99.90;;;;;;5066268;28;19919;-85
2022/10/08 02:25:01;;;;;;;;;;;22.40;99.90;;;;;;5073889;28;19998;-83
2022/10/08 02:28:03;;;;;;;;;;;22.20;99.90;;;;;;5041551;28;19920;-78
2022/10/08 02:30:36;;;;;;;;;;;22.10;99.90;;;;;;4977267;28;19929;-85
2022/10/08 02:33:09;;;;;;;;;;;21.90;99.90;;;;;;5046067;28;19920;-84
2022/10/08 02:35:47;;;;;;;;;;;21.80;99.90;;;;;;5053440;28;19913;-84
2022/10/08 02:38:16;;;;;;;;;;;21.70;99.90;;;;;;5065970;28;19994;-79
2022/10/08 02:40:45;;;;;;;;;;;21.60;99.90;;;;;;5059846;28;19908;-85
2022/10/08 02:43:14;;;;;;;;;;;21.50;99.90;;;;;;5052115;28;20302;-83
2022/10/08 02:45:45;;;;;;;;;;;21.50;99.90;;;;;;5062014;28;20278;-85
2022/10/08 02:48:18;;;;;;;;;;;21.40;99.90;;;;;;5069141;28;20351;-84
2022/10/08 02:50:47;;;;;;;;;;;21.30;99.90;;;;;;5060764;28;19915;-85
2022/10/08 02:53:14;;;;;;;;;;;21.30;99.90;;;;;;5086050;28;19909;-83
2022/10/08 02:55:43;;;;;;;;;;;21.10;99.90;;;;;;5073824;28;19912;-85
2022/10/08 02:58:11;;;;;;;;;;;21.10;99.90;;;;;;5070272;28;20429;-83
2022/10/08 03:00:49;;;;;;;;;;;21.10;99.90;;;;;;5062984;28;20336;-85
2022/10/08 03:03:20;;;;;;;;;;;21.10;99.90;;;;;;5070581;28;19915;-80
2022/10/08 03:05:51;;;;;;;;;;;21.10;99.90;;;;;;5065794;28;20371;-85
2022/10/08 03:08:18;;;;;;;;;;;21.10;99.90;;;;;;5075471;28;19981;-83
2022/10/08 03:10:45;;;;;;;;;;;21.10;99.90;;;;;;5086135;28;20283;-83
2022/10/08 03:13:12;;;;;;;;;;;21.20;99.90;;;;;;5072799;28;19904;-84
2022/10/08 03:15:40;;;;;;;;;;;21.20;99.90;;;;;;5062356;28;19912;-83
2022/10/08 03:18:07;;;;;;;;;;;21.30;99.90;;;;;;5052468;28;19909;-87
2022/10/08 03:20:46;;;;;;;;;;;21.30;99.90;;;;;;5068717;28;19912;-83
2022/10/08 03:23:14;;;;;;;;;;;21.30;99.90;;;;;;5071775;28;20003;-84
2022/10/08 03:25:41;;;;;;;;;;;21.20;99.90;;;;;;5054780;28;19923;-85
2022/10/08 03:28:08;;;;;;;;;;;21.20;99.90;;;;;;5062546;28;19909;-85
2022/10/08 03:30:34;;;;;;;;;;;21.10;99.90;;;;;;5079812;28;19934;-84
2022/10/08 03:33:01;;;;;;;;;;;21.10;99.90;;;;;;5060455;28;19946;-81
2022/10/08 03:35:28;;;;;;;;;;;21.00;99.90;;;;;;5062354;28;20390;-82
2022/10/08 03:37:55;;;;;;;;;;;21.00;99.90;;;;;;5061853;28;19917;-84
2022/10/08 03:40:21;;;;;;;;;;;21.00;99.90;;;;;;5068117;28;19904;-82
2022/10/08 03:42:50;;;;;;;;;;;20.90;99.90;;;;;;5060871;28;19966;-84
2022/10/08 03:45:16;;;;;;;;;;;20.90;99.90;;;;;;5063680;28;19908;-81
2022/10/08 03:47:43;;;;;;;;;;;20.80;99.90;;;;;;5069464;28;20006;-79
2022/10/08 03:50:10;;;;;;;;;;;20.80;99.90;;;;;;5070700;28;19958;-80
2022/10/08 03:52:36;;;;;;;;;;;20.80;99.90;;;;;;5056425;28;19908;-82
2022/10/08 03:55:03;;;;;;;;;;;20.80;99.90;;;;;;5064966;28;19988;-83
2022/10/08 03:57:30;;;;;;;;;;;20.60;99.90;;;;;;5069179;28;19909;-83
2022/10/08 03:59:56;;;;;;;;;;;20.60;99.90;;;;;;5061087;28;19908;-84
2022/10/08 04:02:23;;;;;;;;;;;20.50;99.90;;;;;;5068510;28;19915;-77
2022/10/08 04:04:50;;;;;;;;;;;20.40;99.90;;;;;;5069776;28;20405;-83
2022/10/08 04:07:17;;;;;;;;;;;20.40;99.90;;;;;;5065552;28;19920;-82
2022/10/08 04:09:43;;;;;;;;;;;20.30;99.90;;;;;;5063532;28;19913;-81
2022/10/08 04:12:10;;;;;;;;;;;20.20;99.90;;;;;;5066069;28;19939;-81
2022/10/08 04:14:36;;;;;;;;;;;20.20;99.90;;;;;;5073539;28;20355;-78
2022/10/08 04:17:03;;;;;;;;;;;20.30;99.90;;;;;;5082528;28;20377;-81
2022/10/08 04:19:30;;;;;;;;;;;20.30;99.90;;;;;;5076457;28;20263;-81
2022/10/08 04:21:56;;;;;;;;;;;20.40;99.90;;;;;;5074114;28;20768;-82
2022/10/08 04:24:23;;;;;;;;;;;20.40;99.90;;;;;;5072238;28;20374;-81
2022/10/08 04:26:50;;;;;;;;;;;20.40;99.90;;;;;;5064429;28;19924;-81
2022/10/08 04:29:16;;;;;;;;;;;20.40;99.90;;;;;;5072717;28;19915;-82
2022/10/08 04:31:43;;;;;;;;;;;20.40;99.90;;;;;;5080774;28;19908;-80
2022/10/08 04:34:10;;;;;;;;;;;20.40;99.90;;;;;;5072232;28;19927;-80
2022/10/08 04:36:38;;;;;;;;;;;20.40;99.90;;;;;;5077053;28;19915;-80
2022/10/08 04:39:04;;;;;;;;;;;20.50;99.90;;;;;;5066950;28;19927;-80
2022/10/08 04:41:31;;;;;;;;;;;20.50;99.90;;;;;;5080780;28;20325;-82
2022/10/08 04:44:02;;;;;;;;;;;20.40;99.90;;;;;;5071847;28;19944;-81
2022/10/08 04:46:28;;;;;;;;;;;20.20;99.90;;;;;;5082047;28;20460;-85
2022/10/08 04:48:56;;;;;;;;;;;20.10;99.90;;;;;;5084159;28;19962;-83
2022/10/08 04:51:24;;;;;;;;;;;19.90;99.90;;;;;;5085507;28;19934;-83
2022/10/08 04:53:51;;;;;;;;;;;19.80;99.90;;;;;;5063681;28;19920;-82
2022/10/08 04:56:20;;;;;;;;;;;19.70;99.90;;;;;;5072851;28;20367;-83
2022/10/08 04:58:47;;;;;;;;;;;19.60;99.90;;;;;;5073721;28;20473;-83
2022/10/08 05:01:15;;;;;;;;;;;19.50;99.90;;;;;;5061760;28;20258;-84
2022/10/08 05:03:43;;;;;;;;;;;19.40;99.90;;;;;;5067539;28;19912;-83
2022/10/08 05:06:09;;;;;;;;;;;19.30;99.90;;;;;;5069134;28;19959;-83
2022/10/08 05:08:37;;;;;;;;;;;19.20;99.90;;;;;;5067060;28;20505;-82
2022/10/08 05:11:04;;;;;;;;;;;19.30;99.90;;;;;;5067195;28;19912;-86
2022/10/08 05:13:30;;;;;;;;;;;19.20;99.90;;;;;;5049038;28;19935;-82
2022/10/08 05:16:01;;;;;;;;;;;19.10;99.90;;;;;;5070117;28;19924;-76
2022/10/08 05:18:28;;;;;;;;;;;19.00;99.90;;;;;;5058666;28;19912;-82
2022/10/08 05:20:55;;;;;;;;;;;18.90;99.90;;;;;;5068803;28;19928;-81
2022/10/08 05:23:21;;;;;;;;;;;18.80;99.90;;;;;;5071006;28;19912;-81
2022/10/08 05:25:48;;;;;;;;;;;18.70;99.90;;;;;;5053956;28;19913;-81
2022/10/08 05:28:15;;;;;;;;;;;18.70;99.90;;;;;;5063276;28;20326;-79
2022/10/08 05:30:41;;;;;;;;;;;18.60;99.90;;;;;;5061269;28;20421;-81
2022/10/08 05:33:08;;;;;;;;;;;18.50;99.90;;;;;;5063449;28;19928;-82
2022/10/08 05:35:37;;;;;;;;;;;18.50;99.90;;;;;;5073997;28;19918;-82
2022/10/08 05:38:04;;;;;;;;;;;18.40;99.90;;;;;;5082175;28;20374;-83
2022/10/08 05:40:30;;;;;;;;;;;18.40;99.90;;;;;;5081263;28;19912;-82
2022/10/08 05:42:57;;;;;;;;;;;18.40;99.90;;;;;;5074563;28;19943;-82
2022/10/08 05:45:24;;;;;;;;;;;18.30;99.90;;;;;;5077689;28;20042;-83
2022/10/08 05:47:50;;;;;;;;;;;18.30;99.90;;;;;;5080722;28;19920;-82
2022/10/08 05:50:17;;;;;;;;;;;18.20;99.90;;;;;;5066375;28;19912;-85
2022/10/08 05:52:43;;;;;;;;;;;18.10;99.90;;;;;;5063037;28;19904;-80
2022/10/08 05:55:10;;;;;;;;;;;18.10;99.90;;;;;;5061984;28;20795;-82
2022/10/08 05:57:37;;;;;;;;;;;18.10;99.90;;;;;;5072022;28;19935;-82
2022/10/08 06:00:04;;;;;;;;;;;18.10;99.90;;;;;;5081177;28;19911;-81
2022/10/08 06:02:30;;;;;;;;;;;18.10;99.90;;;;;;5087629;28;19909;-82
2022/10/08 06:04:57;;;;;;;;;;;18.10;99.90;;;;;;5076602;28;19915;-82
2022/10/08 06:07:24;;;;;;;;;;;18.00;99.90;;;;;;5073470;28;19966;-84
2022/10/08 06:09:51;;;;;;;;;;;18.00;99.90;;;;;;5072286;28;19987;-83
2022/10/08 06:12:17;;;;;;;;;;;18.00;99.90;;;;;;5085418;28;19911;-85
2022/10/08 06:14:44;;;;;;;;;;;18.00;99.90;;;;;;5072767;28;19904;-83
2022/10/08 06:17:11;;;;;;;;;;;18.00;99.90;;;;;;5088894;28;19912;-84
2022/10/08 06:19:37;;;;;;;;;;;18.00;99.90;;;;;;5068448;28;19908;-84
2022/10/08 06:22:04;;;;;;;;;;;18.00;99.90;;;;;;5066102;28;20347;-84
2022/10/08 06:24:31;;;;;;;;;;;18.00;99.90;;;;;;5071343;28;19908;-85
2022/10/08 06:26:57;;;;;;;;;;;18.00;99.90;;;;;;5063374;28;20333;-82
2022/10/08 06:29:24;;;;;;;;;;;18.00;99.90;;;;;;5064770;28;19989;-86
2022/10/08 06:31:51;;;;;;;;;;;18.00;99.90;;;;;;5064862;28;20011;-86
2022/10/08 06:34:17;;;;;;;;;;;18.00;99.90;;;;;;5063541;28;19917;-86
2022/10/08 06:36:44;;;;;;;;;;;18.00;99.90;;;;;;5078126;28;19999;-89
2022/10/08 06:39:12;;;;;;;;;;;17.90;99.90;;;;;;5067466;28;20322;-89
2022/10/08 06:41:39;;;;;;;;;;;17.90;99.90;;;;;;5065093;28;19908;-88
2022/10/08 06:44:11;;;;;;;;;;;17.90;99.90;;;;;;5067118;28;19920;-90
2022/10/08 06:46:37;;;;;;;;;;;17.90;99.90;;;;;;5077501;28;20015;-91
2022/10/08 06:49:07;;;;;;;;;;;17.90;99.90;;;;;;5073135;28;19943;-91
2022/10/08 06:51:34;;;;;;;;;;;17.90;99.90;;;;;;5079147;28;19931;-90
2022/10/08 06:54:01;;;;;;;;;;;17.90;99.90;;;;;;5074860;28;19912;-78
2022/10/08 06:56:28;;;;;;;;;;;17.90;99.90;;;;;;5062767;28;19916;-89
2022/10/08 06:58:54;;;;;;;;;;;17.80;99.90;;;;;;5074602;28;19908;-86
2022/10/08 07:01:22;;;;;;;;;;;17.80;99.90;;;;;;5060727;28;19917;-85
2022/10/08 07:03:50;;;;;;;;;;;17.80;99.90;;;;;;5083789;28;20663;-88
2022/10/08 07:06:17;;;;;;;;;;;17.90;99.90;;;;;;5085579;28;19916;-87
2022/10/08 07:08:43;;;;;;;;;;;17.90;99.90;;;;;;5089235;28;19912;-89
2022/10/08 07:11:19;;;;;;;;;;;17.90;99.90;;;;;;5097578;28;19930;-88
2022/10/08 07:13:46;;;;;;;;;;;17.90;99.90;;;;;;5051404;28;19912;-87
2022/10/08 07:16:15;;;;;;;;;;;17.90;99.90;;;;;;5064000;28;19963;-82
2022/10/08 07:18:41;;;;;;;;;;;17.90;99.90;;;;;;5077990;28;19946;-86
2022/10/08 07:21:11;;;;;;;;;;;17.90;99.90;;;;;;5073627;28;19916;-83
2022/10/08 07:23:37;;;;;;;;;;;17.90;99.90;;;;;;5067486;28;19912;-83
2022/10/08 07:26:08;;;;;;;;;;;17.90;99.90;;;;;;5060577;28;20019;-84
2022/10/08 07:28:37;;;;;;;;;;;17.90;99.90;;;;;;5065924;28;20432;-87
2022/10/08 07:31:10;;;;;;;;;;;17.90;99.90;;;;;;5074078;28;19913;-83
2022/10/08 07:33:39;;;;;;;;;;;17.90;99.90;;;;;;5078705;28;19935;-84
2022/10/08 07:36:07;;;;;;;;;;;17.80;99.90;;;;;;5071167;28;19912;-85
2022/10/08 07:38:34;;;;;;;;;;;17.70;99.90;;;;;;5065925;28;19951;-86
2022/10/08 07:41:00;;;;;;;;;;;17.60;99.90;;;;;;5078073;28;19941;-85
2022/10/08 07:43:27;;;;;;;;;;;17.60;99.90;;;;;;5085643;28;20363;-87
2022/10/08 07:45:54;;;;;;;;;;;17.50;99.90;;;;;;5073378;28;19913;-81
2022/10/08 07:48:21;;;;;;;;;;;17.40;99.90;;;;;;5073850;28;19920;-79
2022/10/08 07:50:48;;;;;;;;;;;17.40;99.90;;;;;;5065140;28;19909;-83
2022/10/08 07:53:15;;;;;;;;;;;17.30;99.90;;;;;;5070474;28;20240;-81
2022/10/08 07:55:42;;;;;;;;;;;17.30;99.90;;;;;;5066330;28;20365;-84
2022/10/08 07:58:08;;;;;;;;;;;17.20;99.90;;;;;;5071434;28;20011;-83
2022/10/08 08:00:37;;;;;;;;;;;17.20;99.90;;;;;;5073156;28;20382;-84
2022/10/08 08:03:04;;;;;;;;;;;17.20;99.90;;;;;;5069677;28;19912;-84
2022/10/08 08:05:34;;;;;;;;;;;17.20;99.90;;;;;;5070473;28;19920;-85
2022/10/08 08:08:01;;;;;;;;;;;17.20;99.90;;;;;;5082394;28;20384;-83
2022/10/08 08:10:27;;;;;;;;;;;17.20;99.90;;;;;;5069195;28;19956;-83
2022/10/08 08:12:54;;;;;;;;;;;17.20;99.90;;;;;;5073570;28;20012;-80
2022/10/08 08:15:20;;;;;;;;;;;17.20;99.90;;;;;;5063605;28;20786;-82
2022/10/08 08:17:47;;;;;;;;;;;17.10;99.90;;;;;;5083658;28;19908;-84
2022/10/08 08:20:14;;;;;;;;;;;17.10;99.90;;;;;;5073148;28;19912;-82
2022/10/08 08:22:40;;;;;;;;;;;17.10;99.90;;;;;;5074420;28;19916;-84
2022/10/08 08:25:07;;;;;;;;;;;17.10;99.90;;;;;;5077285;28;20406;-85
2022/10/08 08:27:34;;;;;;;;;;;17.10;99.90;;;;;;5079171;28;20330;-84
2022/10/08 08:30:01;;;;;;;;;;;17.10;99.90;;;;;;5072828;28;19997;-83
2022/10/08 08:32:27;;;;;;;;;;;17.10;99.90;;;;;;5082870;28;19915;-82
2022/10/08 08:34:54;;;;;;;;;;;17.10;99.90;;;;;;5064899;28;19981;-86
2022/10/08 08:37:21;;;;;;;;;;;17.00;99.90;;;;;;5083412;28;19919;-80
2022/10/08 08:39:47;;;;;;;;;;;17.00;99.90;;;;;;5072922;28;19908;-81
2022/10/08 08:42:20;;;;;;;;;;;16.90;99.90;;;;;;5054948;28;20360;-78
2022/10/08 08:45:08;;;;;;;;;;;16.70;99.90;;;;;;5054194;28;19920;-82
2022/10/08 08:47:36;;;;;;;;;;;16.40;99.90;;;;;;5054568;28;20282;-79
2022/10/08 08:50:12;;;;;;;;;;;16.10;99.90;;;;;;5063375;28;19908;-83
2022/10/08 08:52:41;;;;;;;;;;;15.90;99.90;;;;;;5067226;28;19908;-84
2022/10/08 08:55:15;;;;;;;;;;;15.80;99.90;;;;;;5097856;28;20445;-80
2022/10/08 08:57:42;;;;;;;;;;;15.70;99.90;;;;;;5087480;28;19909;-78
2022/10/08 09:00:08;;;;;;;;;;;15.70;99.90;;;;;;5071067;28;19912;-80
2022/10/08 09:02:38;;;;;;;;;;;15.60;99.90;;;;;;5067066;28;19912;-82
2022/10/08 09:05:11;;;;;;;;;;;15.60;99.90;;;;;;5065890;28;19931;-82
2022/10/08 09:07:45;;;;;;;;;;;15.50;99.90;;;;;;5077811;28;19962;-83
2022/10/08 09:10:24;;;;;;;;;;;15.50;99.90;;;;;;5079821;28;19912;-87
2022/10/08 09:12:52;;;;;;;;;;;15.50;99.90;;;;;;5064968;28;19947;-87
2022/10/08 09:15:32;;;;;;;;;;;15.50;99.90;;;;;;5074005;28;19911;-83
2022/10/08 09:18:01;;;;;;;;;;;15.50;99.90;;;;;;5069889;28;19981;-82
2022/10/08 09:20:28;;;;;;;;;;;15.50;99.90;;;;;;5077954;28;19942;-82
2022/10/08 09:22:56;;;;;;;;;;;15.50;99.90;;;;;;5072015;28;19915;-86
2022/10/08 09:25:30;;;;;;;;;;;15.50;99.90;;;;;;5071011;28;19993;-88
2022/10/08 09:27:59;;;;;;;;;;;15.50;99.90;;;;;;5064565;28;19921;-85
2022/10/08 09:30:26;;;;;;;;;;;15.60;99.90;;;;;;5050525;28;19908;-86
2022/10/08 09:32:54;;;;;;;;;;;15.60;99.90;;;;;;5070688;28;19983;-92
2022/10/08 09:35:21;;;;;;;;;;;15.60;99.90;;;;;;5074761;28;19995;-84
2022/10/08 09:37:48;;;;;;;;;;;15.70;99.90;;;;;;5073819;28;19916;-81
2022/10/08 09:40:18;;;;;;;;;;;15.60;99.90;;;;;;5076476;28;19912;-83
2022/10/08 09:43:04;;;;;;;;;;;15.60;99.90;;;;;;5083730;28;19919;-84
2022/10/08 09:45:39;;;;;;;;;;;15.60;99.90;;;;;;5074053;28;19938;-84
2022/10/08 09:48:16;;;;;;;;;;;15.60;99.90;;;;;;5065801;28;19927;-87
2022/10/08 09:51:03;;;;;;;;;;;15.50;99.90;;;;;;5065789;28;19908;-86
2022/10/08 09:53:34;;;;;;;;;;;15.50;99.90;;;;;;5073670;28;21569;-83
2022/10/08 09:56:02;;;;;;;;;;;15.50;99.90;;;;;;5060337;28;19924;-75
2022/10/08 09:58:31;;;;;;;;;;;15.60;99.90;;;;;;5075241;28;20011;-75
2022/10/08 10:01:02;;;;;;;;;;;15.60;99.90;;;;;;5069633;28;19912;-83
2022/10/08 10:03:29;;;;;;;;;;;15.60;99.90;;;;;;5051874;28;19943;-78
2022/10/08 10:05:58;;;;;;;;;;;15.60;99.90;;;;;;5056832;28;20626;-84
2022/10/08 10:09:03;;;;;;;;;;;15.60;99.90;;;;;;5057681;28;20011;-77
2022/10/08 10:11:29;;;;;;;;;;;15.50;99.90;;;;;;4986829;28;21777;-81
2022/10/08 10:13:56;;;;;;;;;;;15.50;99.90;;;;;;4994093;28;19956;-79
2022/10/08 10:16:26;;;;;;;;;;;15.50;99.90;;;;;;5011048;28;19919;-78
2022/10/08 10:19:05;;;;;;;;;;;15.40;99.90;;;;;;5063432;28;19919;-80
2022/10/08 10:22:01;;;;;;;;;;;15.40;99.90;;;;;;5071436;28;19911;-81
2022/10/08 10:24:40;;;;;;;;;;;15.40;99.90;;;;;;5053755;28;19915;-79
2022/10/08 10:27:13;;;;;;;;;;;15.30;99.90;;;;;;5051206;28;20011;-82
2022/10/08 10:29:52;;;;;;;;;;;15.30;99.90;;;;;;5067032;28;19912;-80
2022/10/08 10:32:28;;;;;;;;;;;15.30;99.90;;;;;;5064295;28;19916;-83
2022/10/08 10:34:59;;;;;;;;;;;15.30;99.90;;;;;;5063399;28;19925;-82
2022/10/08 10:37:35;;;;;;;;;;;15.30;99.90;;;;;;5063183;28;19912;-77
2022/10/08 10:40:05;;;;;;;;;;;15.30;99.90;;;;;;5061164;28;20011;-81
2022/10/08 10:42:46;;;;;;;;;;;15.30;99.90;;;;;;5068457;28;19908;-78
2022/10/08 10:45:13;;;;;;;;;;;15.30;99.90;;;;;;5043322;28;20021;-83
2022/10/08 10:47:39;;;;;;;;;;;15.30;99.90;;;;;;5064639;28;19916;-82
2022/10/08 10:50:12;;;;;;;;;;;15.40;99.90;;;;;;5065926;28;19907;-80
2022/10/08 10:53:03;;;;;;;;;;;15.40;99.90;;;;;;5054352;28;19916;-81
2022/10/08 10:55:30;;;;;;;;;;;15.40;99.90;;;;;;5064168;28;20391;-88
2022/10/08 10:57:59;;;;;;;;;;;15.40;99.90;;;;;;5061245;28;20355;-86
2022/10/08 11:00:29;;;;;;;;;;;15.40;99.90;;;;;;5054909;28;20026;-91
2022/10/08 11:03:02;;;;;;;;;;;15.30;99.90;;;;;;5079675;28;19909;-85
2022/10/08 11:05:31;;;;;;;;;;;15.40;99.90;;;;;;5073097;28;19904;-88
2022/10/08 11:08:16;;;;;;;;;;;15.30;99.90;;;;;;5058641;28;20006;-84
2022/10/08 11:10:53;;;;;;;;;;;15.40;99.90;;;;;;5058767;28;19935;-83
2022/10/08 11:13:27;;;;;;;;;;;15.30;99.90;;;;;;5065220;28;19908;-87
2022/10/08 11:16:16;;;;;;;;;;;15.30;99.90;;;;;;5081486;28;20003;-89
2022/10/08 11:18:49;;;;;;;;;;;15.30;99.90;;;;;;5037955;28;19946;-90
2022/10/08 11:21:22;;;;;;;;;;;15.30;99.90;;;;;;5080696;28;19954;-77
2022/10/08 11:23:55;;;;;;;;;;;15.30;99.90;;;;;;5066428;28;19954;-83
2022/10/08 11:26:40;;;;;;;;;;;15.30;99.90;;;;;;5066251;28;19920;-84
2022/10/08 11:29:08;;;;;;;;;;;15.30;99.90;;;;;;5067623;28;19958;-88
2022/10/08 11:31:48;;;;;;;;;;;15.40;99.90;;;;;;5061768;28;19916;-89
2022/10/08 11:34:26;;;;;;;;;;;15.30;99.90;;;;;;5058549;28;20030;-84
2022/10/08 11:37:16;;;;;;;;;;;15.30;99.90;;;;;;5077661;28;19915;-89
2022/10/08 11:39:58;;;;;;;;;;;15.30;99.90;;;;;;5052463;28;20372;-84
2022/10/08 11:42:31;;;;;;;;;;;15.30;99.90;;;;;;5084826;28;20383;-76
2022/10/08 11:45:33;;;;;;;;;;;15.20;99.90;;;;;;5068115;28;19915;-88
2022/10/08 11:48:01;;;;;;;;;;;15.20;99.90;;;;;;5029797;28;19918;-81
2022/10/08 11:50:32;;;;;;;;;;;15.20;99.90;;;;;;5072275;28;19908;-76
2022/10/08 11:53:14;;;;;;;;;;;15.10;99.90;;;;;;5101740;28;19896;-80
2022/10/08 11:55:58;;;;;;;;;;;15.10;99.90;;;;;;5050267;28;19939;-89
2022/10/08 11:58:27;;;;;;;;;;;15.10;99.90;;;;;;5063867;28;19958;-91
2022/10/08 12:01:00;;;;;;;;;;;15.10;99.90;;;;;;5056665;28;19916;-91
2022/10/08 12:03:29;;;;;;;;;;;15.10;99.90;;;;;;5059730;28;19923;-80
2022/10/08 12:06:14;;;;;;;;;;;15.20;99.90;;;;;;5052803;28;21784;-89
2022/10/08 12:08:52;;;;;;;;;;;15.20;99.90;;;;;;5049830;28;20792;-83
2022/10/08 12:11:31;;;;;;;;;;;15.20;99.90;;;;;;5052319;28;19919;-79
2022/10/08 12:14:16;;;;;;;;;;;15.20;99.90;;;;;;5051075;28;19916;-81
2022/10/08 12:16:48;;;;;;;;;;;15.20;99.90;;;;;;5060976;28;20444;-87
2022/10/08 12:19:36;;;;;;;;;;;15.30;99.90;;;;;;5056363;28;19963;-79
2022/10/08 12:22:23;;;;;;;;;;;15.30;99.90;;;;;;5054995;28;20330;-84
2022/10/08 12:24:51;;;;;;;;;;;15.30;99.90;;;;;;5054917;28;19909;-88
2022/10/08 12:27:17;;;;;;;;;;;15.30;99.90;;;;;;5059017;28;19920;-83
2022/10/08 12:29:56;;;;;;;;;;;15.40;99.90;;;;;;5057084;28;19916;-87
2022/10/08 12:32:27;;;;;;;;;;;15.30;99.90;;;;;;5061352;28;19916;-79
2022/10/08 12:34:54;;;;;;;;;;;15.40;99.90;;;;;;5060969;28;19924;-89
2022/10/08 12:37:43;;;;;;;;;;;15.40;99.90;;;;;;5058110;28;20067;-90
2022/10/08 12:40:25;;;;;;;;;;;15.40;99.90;;;;;;5057643;28;20255;-88
2022/10/08 12:42:58;;;;;;;;;;;15.40;99.90;;;;;;5066793;28;19920;-87
2022/10/08 12:45:31;;;;;;;;;;;15.40;99.90;;;;;;5055102;28;20693;-89
2022/10/08 12:48:00;;;;;;;;;;;15.40;99.90;;;;;;5054412;28;19920;-81
2022/10/08 12:50:27;;;;;;;;;;;15.40;99.90;;;;;;5057090;28;19917;-90
2022/10/08 12:52:54;;;;;;;;;;;15.40;99.90;;;;;;5054552;28;19923;-83
2022/10/08 12:55:22;;;;;;;;;;;15.30;99.90;;;;;;5052861;28;19915;-76
2022/10/08 12:57:50;;;;;;;;;;;15.30;99.90;;;;;;5068173;28;19911;-81
2022/10/08 13:00:24;;;;;;;;;;;15.40;99.90;;;;;;5047821;28;19994;-84
2022/10/08 13:03:04;;;;;;;;;;;15.30;99.90;;;;;;5051269;28;19931;-87
2022/10/08 13:05:37;;;;;;;;;;;15.30;99.90;;;;;;5050741;28;19916;-85
2022/10/08 13:08:22;;;;;;;;;;;15.30;99.90;;;;;;5055964;28;19922;-80
2022/10/08 13:10:49;;;;;;;;;;;15.20;99.90;;;;;;5051141;28;21856;-80
2022/10/08 13:13:33;;;;;;;;;;;15.20;99.90;;;;;;5048858;28;19912;-82
2022/10/08 13:16:01;;;;;;;;;;;15.20;99.90;;;;;;5049453;28;19939;-85
2022/10/08 13:18:28;;;;;;;;;;;15.20;99.90;;;;;;5050464;28;19924;-82
2022/10/08 13:20:59;;;;;;;;;;;15.20;99.90;;;;;;5049784;28;19912;-80
2022/10/08 13:23:32;;;;;;;;;;;15.20;99.90;;;;;;5051152;28;20673;-82
2022/10/08 13:25:59;;;;;;;;;;;15.10;99.90;;;;;;5051172;28;19935;-84
2022/10/08 13:28:26;;;;;;;;;;;15.10;99.90;;;;;;5036362;28;19927;-83
2022/10/08 13:30:57;;;;;;;;;;;15.10;99.90;;;;;;5046768;28;19959;-79
2022/10/08 13:33:25;;;;;;;;;;;15.10;99.90;;;;;;5050111;28;19931;-83
2022/10/08 13:35:54;;;;;;;;;;;15.10;99.90;;;;;;5048140;28;20279;-84
2022/10/08 13:38:22;;;;;;;;;;;15.00;99.90;;;;;;5053340;28;19923;-76
2022/10/08 13:40:57;;;;;;;;;;;15.00;99.90;;;;;;5053868;28;19919;-80
2022/10/08 13:43:25;;;;;;;;;;;15.00;99.90;;;;;;5055511;28;19969;-89
2022/10/08 13:45:51;;;;;;;;;;;15.00;99.90;;;;;;5059294;28;19916;-87
2022/10/08 13:48:18;;;;;;;;;;;14.90;99.90;;;;;;5051265;28;19924;-85
2022/10/08 13:50:49;;;;;;;;;;;14.90;99.90;;;;;;5033061;28;19951;-85
2022/10/08 13:53:20;;;;;;;;;;;14.90;99.90;;;;;;5051512;28;19959;-75
2022/10/08 13:55:48;;;;;;;;;;;14.90;99.90;;;;;;5051557;28;19923;-83
2022/10/08 13:58:16;;;;;;;;;;;14.90;99.90;;;;;;5051903;28;19924;-85
2022/10/08 14:00:43;;;;;;;;;;;14.90;99.90;;;;;;5050634;28;19916;-85
2022/10/08 14:03:10;;;;;;;;;;;14.90;99.90;;;;;;5053703;28;19916;-89
2022/10/08 14:05:44;;;;;;;;;;;14.90;99.90;;;;;;5049001;28;19912;-86
2022/10/08 14:08:13;;;;;;;;;;;14.90;99.90;;;;;;5052938;28;19981;-89
2022/10/08 14:10:41;;;;;;;;;;;14.90;99.90;;;;;;5052799;28;19924;-84
2022/10/08 14:13:09;;;;;;;;;;;14.80;99.90;;;;;;5051802;28;19916;-86
2022/10/08 14:15:36;;;;;;;;;;;14.90;99.90;;;;;;5048887;28;19912;-83
2022/10/08 14:18:02;;;;;;;;;;;14.90;99.90;;;;;;5046521;28;19977;-77
2022/10/08 14:20:29;;;;;;;;;;;14.80;99.90;;;;;;5049599;28;20014;-86
2022/10/08 14:22:56;;;;;;;;;;;14.80;99.90;;;;;;5051211;28;20137;-81
2022/10/08 14:25:32;;;;;;;;;;;14.80;99.90;;;;;;5048889;28;19912;-81
2022/10/08 14:27:59;;;;;;;;;;;14.80;99.90;;;;;;5051406;28;19928;-92
2022/10/08 14:30:26;;;;;;;;;;;14.80;99.90;;;;;;5050114;28;19908;-87
2022/10/08 14:32:53;;;;;;;;;;;14.70;99.90;;;;;;5054866;28;20290;-87
2022/10/08 14:35:20;;;;;;;;;;;14.60;99.90;;;;;;5060099;28;20310;-88